Terminal Aerodrome Forecast
Issued by NWS Goodland, KS

Home | Current Version | Previous Version | Text Only | Print | Product List | Glossary On
Versions: 1 2 3 4 5 6 7 8 9 10 11 12 13 14
000
FTUS43 KGLD 181136
TAFGLD
TAF
KGLD 181136Z 1812/1912 25009KT P6SM SKC
     FM181500 31009KT P6SM FEW250
     FM181700 35012KT P6SM SKC
     FM181800 02015G23KT P6SM SKC
     FM182100 04011KT P6SM FEW250
     FM190000 06005KT P6SM SKC=

USA.gov is the U.S. government's official web portal to all federal, state and local government web resources and services.